Time;durP1;ratioP1;P1;durP2;ratioP2;P2;SDS_P1;SDS_P2;PMS_P1;PMS_P2;Temp;Humidity;BMP_temperature;BMP_pressure;BME280_temperature;BME280_humidity;BME280_pressure;Samples;Min_cycle;Max_cycle;Signal;HPM_P1;HPM_P2
2022/04/21 00:00:19;;;;;;;6.60;6.00;;;;;;;8.93;59.13;94628.34;5053333;28;20203;-75
2022/04/21 00:02:46;;;;;;;7.23;6.30;;;;;;;8.91;59.47;94627.69;5053030;28;20206;-75
2022/04/21 00:05:14;;;;;;;7.17;6.47;;;;;;;8.89;59.20;94623.63;5052225;28;20223;-74
2022/04/21 00:07:41;;;;;;;6.60;5.90;;;;;;;8.87;59.16;94633.16;5050527;28;20202;-77
2022/04/21 00:10:08;;;;;;;6.13;5.60;;;;;;;8.85;59.17;94632.47;5051731;28;20234;-76
2022/04/21 00:12:36;;;;;;;7.63;5.80;;;;;;;8.82;59.16;94622.56;5051593;28;20180;-75
2022/04/21 00:15:04;;;;;;;7.00;6.30;;;;;;;8.80;59.27;94626.00;5051834;28;20249;-76
2022/04/21 00:17:35;;;;;;;6.17;5.67;;;;;;;8.76;59.29;94624.69;5051885;28;20215;-75
2022/04/21 00:20:02;;;;;;;6.23;5.63;;;;;;;8.77;59.33;94628.84;5051377;28;20615;-75
2022/04/21 00:25:13;;;;;;;6.17;5.57;;;;;;;8.71;59.52;94631.88;5051792;28;20224;-77
2022/04/21 00:27:40;;;;;;;6.70;5.97;;;;;;;8.70;59.55;94630.28;5051655;28;20198;-76
2022/04/21 00:30:08;;;;;;;7.37;6.47;;;;;;;8.66;59.56;94625.56;5051544;28;20186;-75
2022/04/21 00:32:38;;;;;;;6.57;5.83;;;;;;;8.65;59.65;94629.84;5049323;28;20197;-76
2022/04/21 00:35:07;;;;;;;7.07;6.27;;;;;;;8.59;59.74;94627.00;5051685;28;20206;-75
2022/04/21 00:37:43;;;;;;;7.17;6.47;;;;;;;8.53;59.87;94618.94;5051553;28;20191;-77
2022/04/21 00:40:11;;;;;;;8.23;6.13;;;;;;;8.62;59.64;94631.84;5051451;28;20554;-75
2022/04/21 00:42:38;;;;;;;8.97;6.47;;;;;;;8.59;59.69;94632.91;5051496;28;20191;-74
2022/04/21 00:45:06;;;;;;;6.70;6.00;;;;;;;8.58;59.76;94638.94;5051285;28;20187;-76
2022/04/21 00:47:33;;;;;;;6.57;5.73;;;;;;;8.57;59.73;94634.78;5051504;28;20234;-77
2022/04/21 00:50:01;;;;;;;6.53;5.83;;;;;;;8.56;59.90;94629.81;5050777;28;20194;-77
2022/04/21 00:52:29;;;;;;;7.53;6.73;;;;;;;8.53;59.89;94635.97;5051616;28;20274;-75
2022/04/21 00:54:55;;;;;;;7.03;6.33;;;;;;;8.50;59.93;94629.38;5050637;28;20245;-75
2022/04/21 00:57:22;;;;;;;7.33;6.57;;;;;;;8.48;60.16;94635.53;5051260;28;20195;-74
2022/04/21 00:59:49;;;;;;;7.40;6.60;;;;;;;8.45;60.13;94633.25;5050849;28;20183;-74
2022/04/21 01:05:02;;;;;;;7.67;6.63;;;;;;;8.42;60.08;94623.28;5050883;28;20577;-75
2022/04/21 01:07:29;;;;;;;7.17;6.47;;;;;;;8.40;60.03;94625.97;5051074;28;20230;-76
2022/04/21 01:09:56;;;;;;;7.60;6.80;;;;;;;8.29;59.96;94611.56;5050302;28;20706;-75
2022/04/21 01:12:24;;;;;;;7.17;6.37;;;;;;;8.36;59.91;94619.47;5050566;28;20661;-74
2022/04/21 01:14:51;;;;;;;7.30;6.57;;;;;;;8.35;59.99;94625.53;5050945;28;20277;-74
2022/04/21 01:17:31;;;;;;;8.33;6.07;;;;;;;8.34;59.96;94621.38;5051314;28;20183;-75
2022/04/21 01:19:57;;;;;;;7.43;6.43;;;;;;;8.32;60.08;94604.56;5050735;28;20270;-76
2022/04/21 01:22:26;;;;;;;9.70;6.30;;;;;;;8.29;60.18;94591.16;5051160;28;20195;-75
2022/04/21 01:24:52;;;;;;;7.10;6.13;;;;;;;8.27;60.06;94597.31;5050568;28;20199;-77
2022/04/21 01:27:23;;;;;;;8.03;6.80;;;;;;;8.26;60.23;94595.72;5051059;28;20217;-75
2022/04/21 01:29:50;;;;;;;9.47;7.13;;;;;;;8.19;60.21;94584.38;5050238;28;20184;-73
2022/04/21 01:32:17;;;;;;;8.70;6.90;;;;;;;8.24;60.18;94585.63;5051005;28;20222;-77
2022/04/21 01:34:43;;;;;;;9.00;7.10;;;;;;;8.23;60.08;94588.31;5050354;28;20194;-75
2022/04/21 01:42:40;;;;;;;9.20;7.13;;;;;;;8.19;60.25;94575.00;5050559;28;20260;-74
2022/04/21 01:45:08;;;;;;;10.23;7.17;;;;;;;8.18;60.33;94580.25;5050340;28;20555;-75
2022/04/21 01:47:35;;;;;;;8.80;7.87;;;;;;;8.16;60.38;94577.81;5050231;28;20223;-74
2022/04/21 01:50:07;;;;;;;7.13;6.43;;;;;;;8.10;60.48;94564.78;5050042;28;20197;-74
2022/04/21 01:52:37;;;;;;;9.23;7.33;;;;;;;8.15;60.46;94572.84;5050145;28;20277;-75
2022/04/21 01:55:07;;;;;;;7.70;6.90;;;;;;;8.12;60.45;94579.00;5049718;28;20249;-78
2022/04/21 01:57:34;;;;;;;8.97;7.10;;;;;;;8.14;60.47;94571.22;5050578;28;20180;-77
2022/04/21 02:00:01;;;;;;;12.27;7.50;;;;;;;8.14;60.48;94579.69;5050152;28;20198;-77
2022/04/21 02:02:29;;;;;;;9.97;7.30;;;;;;;8.15;60.47;94588.13;5049977;28;20202;-79
2022/04/21 02:04:58;;;;;;;8.20;7.40;;;;;;;8.12;60.24;94573.91;5049669;28;20187;-76
2022/04/21 02:07:25;;;;;;;8.80;7.30;;;;;;;8.13;60.47;94564.53;5050335;28;20243;-75
2022/04/21 02:09:52;;;;;;;7.93;7.13;;;;;;;8.04;60.41;94548.28;5049684;28;20215;-75
2022/04/21 02:12:21;;;;;;;9.13;7.20;;;;;;;8.03;60.54;94550.00;5051020;28;20179;-75
2022/04/21 02:14:48;;;;;;;7.40;6.63;;;;;;;8.11;60.39;94562.09;5051478;28;20195;-74
2022/04/21 02:17:15;;;;;;;8.67;7.03;;;;;;;8.04;60.51;94550.81;5049896;28;20747;-74
2022/04/21 02:19:42;;;;;;;8.17;7.17;;;;;;;8.08;60.53;94554.72;5049752;28;20191;-75
2022/04/21 02:22:09;;;;;;;8.13;7.23;;;;;;;8.05;60.31;94552.41;5049609;28;20199;-74
2022/04/21 02:24:36;;;;;;;10.63;7.80;;;;;;;8.08;60.51;94559.00;5049909;28;20194;-74
2022/04/21 02:27:03;;;;;;;9.27;7.60;;;;;;;8.03;60.51;94549.19;5049792;28;20222;-76
2022/04/21 02:29:32;;;;;;;7.83;7.13;;;;;;;7.84;60.52;94529.50;5050352;28;20214;-76
2022/04/21 02:31:59;;;;;;;7.83;6.90;;;;;;;8.04;60.56;94564.34;5049079;28;20563;-74
2022/04/21 02:34:26;;;;;;;8.70;7.80;;;;;;;8.01;60.49;94566.34;5049606;28;20183;-75
2022/04/21 02:36:53;;;;;;;8.23;7.23;;;;;;;8.01;60.68;94571.44;5049498;28;20203;-75
2022/04/21 02:39:20;;;;;;;8.13;7.33;;;;;;;8.00;60.60;94574.91;5050075;28;20198;-75
2022/04/21 02:41:46;;;;;;;8.00;7.20;;;;;;;7.97;60.66;94570.88;5049438;28;20195;-75
2022/04/21 02:44:13;;;;;;;8.10;7.33;;;;;;;7.97;60.67;94581.06;5049594;28;20643;-74
2022/04/21 02:46:41;;;;;;;9.10;7.33;;;;;;;7.95;60.79;94577.84;5049524;28;20214;-75
2022/04/21 02:49:09;;;;;;;9.10;7.27;;;;;;;7.94;60.82;94578.75;5049551;28;20649;-74
2022/04/21 02:51:36;;;;;;;10.40;7.60;;;;;;;7.93;60.78;94586.50;5049522;28;20305;-75
2022/04/21 02:59:33;;;;;;;7.80;6.97;;;;;;;7.88;60.77;94578.44;5049700;28;20253;-75
2022/04/21 03:02:01;;;;;;;11.40;7.43;;;;;;;7.89;60.90;94580.06;5049250;28;20654;-74
2022/04/21 03:04:28;;;;;;;8.10;7.30;;;;;;;7.88;60.81;94575.91;5049490;28;20191;-74
2022/04/21 03:06:54;;;;;;;9.40;8.07;;;;;;;7.83;60.89;94573.72;5049430;28;20226;-77
2022/04/21 03:09:21;;;;;;;8.00;7.20;;;;;;;7.84;60.69;94572.78;5048938;28;20227;-75
2022/04/21 03:11:49;;;;;;;8.43;7.53;;;;;;;7.83;60.92;94576.28;5049166;28;20210;-76
2022/04/21 03:14:18;;;;;;;8.37;7.03;;;;;;;7.79;60.83;94569.81;5049388;28;20274;-74
2022/04/21 03:16:44;;;;;;;8.43;7.23;;;;;;;7.79;60.75;94573.16;5049221;28;20198;-74
2022/04/21 03:19:13;;;;;;;8.40;6.40;;;;;;;7.79;60.81;94572.38;5049205;28;20186;-74
2022/04/21 03:24:24;;;;;;;8.43;7.33;;;;;;;7.74;60.82;94567.66;5049618;28;20182;-74
2022/04/21 03:26:52;;;;;;;7.53;6.83;;;;;;;7.75;60.79;94563.34;5050785;28;20284;-76
2022/04/21 03:29:19;;;;;;;8.43;7.03;;;;;;;7.74;60.84;94566.84;5052613;28;20187;-74
2022/04/21 03:31:48;;;;;;;8.33;7.20;;;;;;;7.73;60.86;94570.31;5052526;28;20630;-76
2022/04/21 03:34:17;;;;;;;8.80;7.10;;;;;;;7.71;60.78;94572.97;5053053;28;20214;-75
2022/04/21 03:36:47;;;;;;;8.87;7.80;;;;;;;7.65;60.69;94560.75;5052338;28;20575;-74
2022/04/21 03:39:14;;;;;;;8.43;7.23;;;;;;;7.72;60.80;94572.03;5052698;28;20584;-75
2022/04/21 03:41:41;;;;;;;12.10;8.07;;;;;;;7.67;60.80;94571.59;5052547;28;20190;-76
2022/04/21 03:44:09;;;;;;;8.87;7.30;;;;;;;7.72;60.77;94566.13;5052453;28;20191;-77
2022/04/21 03:46:36;;;;;;;9.23;7.17;;;;;;;7.72;60.90;94568.69;5053067;28;20233;-75
2022/04/21 03:49:03;;;;;;;10.30;8.23;;;;;;;7.72;61.06;94573.78;5052871;28;20183;-78
2022/04/21 03:51:34;;;;;;;8.73;7.80;;;;;;;7.73;61.10;94566.03;5052624;28;20203;-74
2022/04/21 03:54:01;;;;;;;8.90;7.70;;;;;;;7.77;61.18;94569.94;5052489;28;20277;-78
2022/04/21 03:56:28;;;;;;;13.37;8.07;;;;;;;7.80;61.20;94573.97;5053528;28;20288;-76
2022/04/21 03:58:54;;;;;;;9.33;8.17;;;;;;;7.83;61.07;94572.94;5052073;28;20183;-75
2022/04/21 04:01:22;;;;;;;9.33;7.40;;;;;;;7.87;61.13;94564.13;5049663;28;20191;-74
2022/04/21 04:03:49;;;;;;;10.23;8.33;;;;;;;7.89;61.18;94572.41;5052531;28;20191;-75
2022/04/21 04:11:46;;;;;;;8.73;7.40;;;;;;;8.00;61.62;94575.72;5051507;28;20260;-74
2022/04/21 04:14:13;;;;;;;8.43;7.60;;;;;;;8.03;61.87;94570.38;5051155;28;20185;-76
2022/04/21 04:16:40;;;;;;;10.20;8.33;;;;;;;7.98;62.21;94562.28;5052400;28;20199;-76
2022/04/21 04:19:08;;;;;;;8.60;7.70;;;;;;;8.21;61.91;94580.00;5051780;28;20199;-76
2022/04/21 04:21:34;;;;;;;9.47;8.03;;;;;;;8.36;61.44;94578.72;5052075;28;20381;-80
2022/04/21 04:24:03;;;;;;;10.13;9.13;;;;;;;8.51;61.13;94576.69;5052627;28;20187;-74
2022/04/21 04:26:31;;;;;;;10.70;8.60;;;;;;;8.65;60.71;94563.59;5054568;28;20246;-75
2022/04/21 04:28:58;;;;;;;11.60;8.33;;;;;;;8.84;60.22;94562.03;5054139;28;20187;-74
2022/04/21 04:31:24;;;;;;;9.27;8.27;;;;;;;9.07;60.26;94562.59;5051730;28;20248;-77
2022/04/21 04:33:51;;;;;;;11.30;8.33;;;;;;;9.26;60.29;94558.34;5051683;28;20218;-78
2022/04/21 04:36:19;;;;;;;10.90;8.63;;;;;;;9.49;59.92;94556.31;5052042;28;20191;-76
2022/04/21 04:38:48;;;;;;;10.53;8.40;;;;;;;9.65;59.83;94549.88;5051083;28;20187;-75
2022/04/21 04:44:01;;;;;;;8.83;6.03;;;;;;;10.36;85.24;94563.06;5051843;28;20260;-74
2022/04/21 04:46:36;;;;;;;14.27;6.57;;;;;;;10.92;83.59;94561.38;5052053;28;20187;-79
2022/04/21 04:49:05;;;;;;;12.13;8.40;;;;;;;11.52;80.53;94559.88;5051516;28;20638;-85
2022/04/21 04:51:32;;;;;;;11.00;8.10;;;;;;;12.10;77.00;94568.88;5052027;28;20194;-76
2022/04/21 04:53:59;;;;;;;9.53;8.53;;;;;;;12.56;72.43;94572.03;5051528;28;20237;-76
2022/04/21 04:56:28;;;;;;;9.77;7.47;;;;;;;12.95;72.53;94582.66;5051749;28;20199;-83
2022/04/21 04:58:55;;;;;;;7.83;6.73;;;;;;;13.33;71.38;94574.59;5036788;28;20562;-88
2022/04/21 05:01:29;;;;;;;20.57;10.33;;;;;;;13.46;58.43;94560.31;5055609;28;20858;-86
2022/04/21 05:04:03;;;;;;;10.30;9.17;;;;;;;13.46;59.53;94582.63;5065388;28;20193;-74
2022/04/21 05:06:30;;;;;;;11.53;10.00;;;;;;;13.49;60.57;94572.84;5063584;28;20191;-77
2022/04/21 05:08:58;;;;;;;12.43;9.57;;;;;;;13.64;60.14;94577.34;5065972;28;20594;-77
2022/04/21 05:11:25;;;;;;;14.53;10.20;;;;;;;13.68;59.46;94574.31;5064018;28;20225;-74
2022/04/21 05:13:57;;;;;;;11.80;9.77;;;;;;;13.86;58.18;94587.03;5065952;28;20187;-74
2022/04/21 05:16:23;;;;;;;13.93;10.53;;;;;;;13.92;57.61;94590.72;5068177;28;20642;-73
2022/04/21 05:18:51;;;;;;;15.77;11.07;;;;;;;13.82;56.93;94572.91;5068976;28;20218;-77
2022/04/21 05:21:18;;;;;;;16.63;11.37;;;;;;;14.02;56.27;94592.16;5069357;28;20187;-75
2022/04/21 05:23:47;;;;;;;14.30;10.80;;;;;;;14.06;55.51;94597.78;5067876;28;20170;-80
2022/04/21 05:26:15;;;;;;;12.57;11.23;;;;;;;14.10;55.18;94596.50;5061757;28;20626;-80
2022/04/21 05:28:43;;;;;;;14.60;10.93;;;;;;;14.14;54.90;94610.66;5058602;28;20329;-87
2022/04/21 05:31:11;;;;;;;11.97;10.50;;;;;;;14.22;55.13;94597.78;5066686;28;20179;-76
2022/04/21 05:33:39;;;;;;;14.10;11.20;;;;;;;14.32;55.47;94602.75;5067955;28;20191;-74
2022/04/21 05:36:07;;;;;;;15.07;11.87;;;;;;;14.50;55.92;94597.44;5067497;28;20179;-75
2022/04/21 05:38:37;;;;;;;14.67;12.00;;;;;;;14.71;55.68;94596.91;5072574;28;20187;-77
2022/04/21 05:41:05;;;;;;;12.40;11.10;;;;;;;14.95;55.78;94599.44;5071472;28;20194;-80
2022/04/21 05:44:06;;;;;;;14.73;10.97;;;;;;;15.28;55.29;94602.69;5069537;28;20190;-79
2022/04/21 05:46:35;;;;;;;17.10;11.30;;;;;;;15.56;54.65;94591.88;5066721;28;20244;-84
2022/04/21 05:49:03;;;;;;;12.20;10.47;;;;;;;15.80;53.80;94590.94;5065082;28;20255;-78
2022/04/21 05:51:30;;;;;;;12.13;10.33;;;;;;;16.00;53.21;94586.13;5065948;28;20184;-79
2022/04/21 05:53:59;;;;;;;11.33;9.47;;;;;;;16.14;52.29;94587.13;5068421;28;20210;-74
2022/04/21 05:56:26;;;;;;;10.10;9.07;;;;;;;16.23;51.59;94576.56;5069581;28;20191;-86
2022/04/21 05:58:53;;;;;;;10.70;9.60;;;;;;;16.38;51.21;94588.72;5068296;28;20226;-76
2022/04/21 06:01:20;;;;;;;11.17;9.37;;;;;;;16.48;50.90;94582.31;5067921;28;20179;-75
2022/04/21 06:03:48;;;;;;;11.77;10.07;;;;;;;16.54;50.23;94573.06;5066838;28;20191;-80
2022/04/21 06:06:15;;;;;;;11.77;9.80;;;;;;;16.64;50.20;94585.72;5067150;28;20206;-81
2022/04/21 06:08:42;;;;;;;11.60;10.00;;;;;;;16.68;50.27;94579.22;5067867;28;20238;-82
2022/04/21 06:11:09;;;;;;;13.63;10.43;;;;;;;16.70;50.06;94580.63;5056696;28;20190;-84
2022/04/21 06:13:36;;;;;;;14.50;11.40;;;;;;;16.73;49.85;94585.47;5056597;28;20670;-86
2022/04/21 06:16:03;;;;;;;12.40;11.10;;;;;;;16.73;49.69;94582.88;5056810;28;20620;-85
2022/04/21 06:18:30;;;;;;;12.40;11.10;;;;;;;16.75;49.53;94587.88;5055218;28;20198;-90
2022/04/21 06:20:58;;;;;;;13.40;10.70;;;;;;;16.70;49.24;94583.19;5055137;28;20186;-81
2022/04/21 06:23:25;;;;;;;16.07;11.07;;;;;;;16.72;48.81;94593.38;5055822;28;20198;-83
2022/04/21 06:25:58;;;;;;;11.37;9.80;;;;;;;16.68;48.54;94592.91;5055638;28;20241;-86
2022/04/21 06:28:26;;;;;;;10.47;9.03;;;;;;;16.66;48.34;94586.31;5054563;28;20288;-75
2022/04/21 06:30:53;;;;;;;10.73;9.73;;;;;;;16.61;48.19;94583.47;5051986;28;20198;-77
2022/04/21 06:33:20;;;;;;;10.57;9.43;;;;;;;16.56;47.94;94582.22;5057849;28;20449;-82
2022/04/21 06:35:47;;;;;;;11.93;9.60;;;;;;;16.49;47.61;94583.09;5054019;28;20187;-80
2022/04/21 06:38:15;;;;;;;10.60;8.77;;;;;;;16.43;47.64;94583.81;5053332;28;20268;-76
2022/04/21 06:40:42;;;;;;;11.60;9.20;;;;;;;16.37;47.54;94585.34;5048974;28;20190;-82
2022/04/21 06:48:34;;;;;;;10.63;8.97;;;;;;;16.19;47.08;94587.41;5048991;28;20751;-85
2022/04/21 06:51:01;;;;;;;12.87;8.70;;;;;;;16.16;46.85;94583.41;5049043;28;20199;-82
2022/04/21 06:53:30;;;;;;;8.90;7.83;;;;;;;16.11;46.92;94575.41;5049058;28;20187;-82
2022/04/21 06:55:57;;;;;;;8.50;7.67;;;;;;;16.14;46.79;94579.41;5049347;28;20241;-83
2022/04/21 06:58:23;;;;;;;11.00;7.57;;;;;;;16.14;47.04;94580.19;5048583;28;20195;-82
2022/04/21 07:00:50;;;;;;;9.87;8.33;;;;;;;16.18;47.53;94580.66;5050535;28;20195;-83
2022/04/21 07:03:17;;;;;;;7.53;6.83;;;;;;;16.23;46.99;94580.94;5053177;28;20202;-82
2022/04/21 07:05:45;;;;;;;7.33;6.63;;;;;;;16.32;47.29;94579.91;5053255;28;20631;-74
2022/04/21 07:08:12;;;;;;;8.60;7.20;;;;;;;16.40;47.52;94584.16;5052469;28;20207;-84
2022/04/21 07:10:40;;;;;;;8.63;7.80;;;;;;;16.46;47.55;94581.69;5053347;28;20581;-79
2022/04/21 07:13:11;;;;;;;8.00;7.27;;;;;;;16.54;47.38;94591.13;5052584;28;20195;-76
2022/04/21 07:15:38;;;;;;;9.90;7.10;;;;;;;16.60;47.21;94593.00;5053159;28;20186;-81
2022/04/21 07:18:05;;;;;;;8.40;7.53;;;;;;;16.66;47.00;94584.53;5052658;28;20191;-84
2022/04/21 07:20:31;;;;;;;9.23;7.10;;;;;;;16.76;46.79;94589.50;5055227;28;20812;-80
2022/04/21 07:22:58;;;;;;;6.80;6.10;;;;;;;16.87;46.65;94595.97;5067126;28;20191;-84
2022/04/21 07:25:25;;;;;;;7.17;6.07;;;;;;;16.96;46.73;94600.88;5054916;28;20187;-86
2022/04/21 07:27:54;;;;;;;7.63;6.90;;;;;;;17.03;46.77;94604.34;5052789;28;20609;-82
2022/04/21 07:30:21;;;;;;;8.20;6.47;;;;;;;17.19;46.53;94615.47;5051856;28;20194;-79
2022/04/21 07:32:48;;;;;;;7.20;6.47;;;;;;;17.31;46.30;94608.84;5052618;28;20183;-77
2022/04/21 07:35:17;;;;;;;8.13;7.33;;;;;;;17.44;46.29;94615.97;5051995;28;20222;-75
2022/04/21 07:37:44;;;;;;;8.23;6.90;;;;;;;17.59;46.00;94613.34;5052627;28;20630;-78
2022/04/21 07:40:11;;;;;;;9.03;7.43;;;;;;;17.69;45.81;94609.47;5052454;28;20202;-83
2022/04/21 07:42:38;;;;;;;10.00;8.00;;;;;;;17.85;45.28;94603.31;5051897;28;20206;-78
2022/04/21 07:45:07;;;;;;;7.87;7.07;;;;;;;18.02;44.95;94609.03;5052710;28;20198;-79
2022/04/21 07:47:34;;;;;;;11.27;8.13;;;;;;;18.12;45.13;94604.34;5052020;28;20207;-74
2022/04/21 07:50:01;;;;;;;8.70;7.80;;;;;;;18.35;44.48;94600.72;5052018;28;20194;-83
2022/04/21 07:55:17;;;;;;;9.73;7.70;;;;;;;18.91;43.81;94618.88;5051788;28;20190;-80
2022/04/21 07:57:45;;;;;;;9.40;7.30;;;;;;;19.12;43.74;94605.03;5051597;28;20686;-82
2022/04/21 08:00:16;;;;;;;9.23;8.30;;;;;;;19.28;44.03;94608.09;5052087;28;20191;-78
2022/04/21 08:02:44;;;;;;;10.27;7.70;;;;;;;19.42;43.54;94610.75;5053066;28;20654;-83
2022/04/21 08:05:12;;;;;;;9.77;7.97;;;;;;;19.53;43.20;94600.63;5054411;28;20190;-78
2022/04/21 08:07:40;;;;;;;8.93;8.03;;;;;;;19.63;42.81;94596.88;5051511;28;20222;-78
2022/04/21 08:10:08;;;;;;;13.00;7.40;;;;;;;19.73;42.90;94607.66;5051464;28;20226;-83
2022/04/21 08:12:40;;;;;;;10.57;7.43;;;;;;;19.82;42.56;94598.72;5049981;28;20203;-84
2022/04/21 08:15:08;;;;;;;13.00;8.90;;;;;;;19.91;42.21;94594.94;5051485;28;20655;-83
2022/04/21 08:17:37;;;;;;;9.00;7.80;;;;;;;19.99;41.89;94596.53;5048436;28;20582;-83
2022/04/21 08:20:06;;;;;;;10.00;8.20;;;;;;;20.07;41.81;94598.94;5051690;28;20191;-83
2022/04/21 08:22:33;;;;;;;8.73;7.90;;;;;;;20.15;41.68;94600.56;5051767;28;20654;-84
2022/04/21 08:33:15;;;;;;;9.77;8.77;;;;;;;20.41;41.21;94604.97;5051672;28;20217;-82
2022/04/21 08:35:44;;;;;;;9.70;8.70;;;;;;;20.49;41.06;94604.78;5050964;28;20219;-87
2022/04/21 08:38:10;;;;;;;10.57;8.40;;;;;;;20.54;41.00;94599.78;5051257;28;20191;-86
2022/04/21 08:40:38;;;;;;;8.73;7.83;;;;;;;20.61;40.84;94602.38;5052265;28;20187;-84
2022/04/21 08:43:13;;;;;;;10.77;9.00;;;;;;;20.67;40.59;94599.75;5050814;28;20191;-77
2022/04/21 08:45:42;;;;;;;10.13;8.73;;;;;;;20.72;40.50;94588.75;5051636;28;20282;-84
2022/04/21 08:48:11;;;;;;;10.00;8.30;;;;;;;20.79;40.01;94602.56;5051324;28;20215;-84
2022/04/21 08:50:40;;;;;;;9.73;8.73;;;;;;;20.83;39.87;94595.16;5051723;28;20681;-83
2022/04/21 08:53:08;;;;;;;10.57;8.37;;;;;;;20.84;40.14;94589.75;5050774;28;20203;-79
2022/04/21 08:55:34;;;;;;;12.67;9.73;;;;;;;20.85;40.40;94578.34;5050738;28;20187;-81
2022/04/21 08:58:04;;;;;;;10.13;8.23;;;;;;;20.89;40.57;94582.13;5050401;28;20281;-75
2022/04/21 09:00:31;;;;;;;10.80;8.93;;;;;;;20.89;40.93;94578.72;5051277;28;20248;-76
2022/04/21 09:02:58;;;;;;;10.07;9.07;;;;;;;20.90;41.22;94582.94;5050965;28;20195;-87
2022/04/21 09:05:28;;;;;;;11.87;9.27;;;;;;;20.88;41.10;94580.53;5050390;28;20211;-81
2022/04/21 09:07:57;;;;;;;13.27;9.60;;;;;;;20.84;41.14;94581.16;5053135;28;20218;-89
2022/04/21 09:10:25;;;;;;;12.10;9.73;;;;;;;20.82;41.11;94581.38;5054865;28;20198;-80
2022/04/21 09:12:55;;;;;;;14.13;10.00;;;;;;;20.81;40.87;94577.16;5055991;28;20212;-80
2022/04/21 09:15:23;;;;;;;13.03;9.70;;;;;;;20.76;40.87;94576.97;5049084;28;20195;-79
2022/04/21 09:17:52;;;;;;;11.07;9.80;;;;;;;20.69;40.92;94566.59;5047786;28;20654;-79
2022/04/21 09:20:20;;;;;;;13.63;10.37;;;;;;;20.77;40.80;94575.97;5047094;28;20183;-81
2022/04/21 09:22:52;;;;;;;11.40;9.73;;;;;;;20.74;40.78;94573.78;5047802;28;20210;-78
2022/04/21 09:25:21;;;;;;;12.73;10.27;;;;;;;20.71;40.59;94579.38;5044312;28;20194;-80
2022/04/21 09:27:49;;;;;;;11.87;9.87;;;;;;;20.68;40.62;94570.19;5047050;28;20206;-76
2022/04/21 09:30:17;;;;;;;15.70;11.00;;;;;;;20.66;40.39;94579.97;5046478;28;20595;-78
2022/04/21 09:32:53;;;;;;;12.17;10.77;;;;;;;20.58;40.46;94566.41;5047007;28;20620;-79
2022/04/21 09:35:20;;;;;;;14.20;11.13;;;;;;;20.54;39.88;94574.59;5046537;28;20205;-80
2022/04/21 09:37:52;;;;;;;13.33;10.73;;;;;;;20.52;40.16;94576.59;5047212;28;20242;-77
2022/04/21 09:40:22;;;;;;;12.33;9.80;;;;;;;20.54;40.23;94579.00;5046333;28;20194;-79
2022/04/21 09:42:57;;;;;;;11.30;9.77;;;;;;;20.52;40.32;94583.59;5047254;28;20209;-76
2022/04/21 09:48:23;;;;;;;11.33;9.70;;;;;;;20.48;40.22;94574.63;5046844;28;20222;-76
2022/04/21 09:50:53;;;;;;;12.07;9.70;;;;;;;20.47;40.19;94580.78;5046685;28;20700;-75
2022/04/21 09:53:23;;;;;;;13.63;9.90;;;;;;;20.44;40.38;94576.00;5046603;28;20722;-77
2022/04/21 09:55:52;;;;;;;14.73;11.93;;;;;;;20.46;40.34;94579.16;5044682;28;20305;-78
2022/04/21 09:58:19;;;;;;;20.70;13.70;;;;;;;20.45;40.41;94574.97;5046147;28;20210;-76
2022/04/21 10:00:46;;;;;;;18.97;13.80;;;;;;;20.44;40.38;94579.38;5046294;28;20921;-75
2022/04/21 10:03:13;;;;;;;17.60;13.17;;;;;;;20.41;40.39;94571.97;5046195;28;20277;-76
2022/04/21 10:05:41;;;;;;;18.10;12.83;;;;;;;20.40;40.25;94572.19;5046623;28;20183;-75
2022/04/21 10:08:11;;;;;;;17.10;12.53;;;;;;;20.38;40.36;94569.81;5046782;28;20191;-76
2022/04/21 10:10:40;;;;;;;17.20;13.27;;;;;;;20.33;40.42;94555.81;5046873;28;20713;-74
2022/04/21 10:13:08;;;;;;;19.70;12.03;;;;;;;20.30;40.16;94551.81;5046264;28;20226;-73
2022/04/21 10:15:36;;;;;;;15.53;12.30;;;;;;;20.35;40.29;94554.63;5046244;28;20613;-73
2022/04/21 10:18:07;;;;;;;16.50;13.13;;;;;;;20.33;40.39;94551.41;5046599;28;20202;-73
2022/04/21 10:20:34;;;;;;;15.27;13.27;;;;;;;20.32;40.20;94555.00;5046477;28;20183;-74
2022/04/21 10:23:03;;;;;;;15.80;14.07;;;;;;;20.30;40.45;94557.81;5046620;28;20554;-75
2022/04/21 10:25:39;;;;;;;16.87;14.20;;;;;;;20.27;40.43;94555.63;5046212;28;20186;-74
2022/04/21 10:28:41;;;;;;;17.27;13.63;;;;;;;20.26;40.27;94556.63;5045940;28;20206;-74
2022/04/21 10:31:27;;;;;;;17.17;14.37;;;;;;;20.24;40.42;94555.22;5041219;28;20670;-74
2022/04/21 10:33:56;;;;;;;16.40;14.60;;;;;;;20.22;40.26;94549.44;5046476;28;20218;-74
2022/04/21 10:36:47;;;;;;;22.23;14.20;;;;;;;20.19;40.40;94542.81;5048652;28;20673;-75
2022/04/21 10:39:24;;;;;;;17.77;12.20;;;;;;;20.18;40.56;94551.63;4969166;28;20245;-87
2022/04/21 10:42:16;;;;;;;16.77;14.30;;;;;;;20.16;40.59;94538.03;4967198;28;20220;-82
2022/04/21 10:44:51;;;;;;;16.63;13.67;;;;;;;20.19;40.57;94550.63;4969040;28;20196;-83
2022/04/21 10:47:36;;;;;;;17.93;14.13;;;;;;;20.13;40.61;94542.84;4969041;28;20201;-79
2022/04/21 10:50:14;;;;;;;16.57;12.80;;;;;;;20.16;40.63;94550.22;4968842;28;20227;-90
2022/04/21 10:58:51;;;;;;;14.50;13.00;;;;;;;20.12;40.76;94541.22;4970552;28;20221;-77
2022/04/21 11:01:27;;;;;;;15.87;12.50;;;;;;;20.12;40.71;94544.66;4970239;28;20676;-76
2022/04/21 11:04:22;;;;;;;16.43;13.23;;;;;;;20.15;40.70;94546.03;4968458;28;20260;-78
2022/04/21 11:06:52;;;;;;;15.53;12.07;;;;;;;20.15;40.67;94543.44;4971415;28;20202;-82
2022/04/21 11:09:38;;;;;;;19.43;13.50;;;;;;;20.16;40.72;94537.22;4971042;28;20653;-78
2022/04/21 11:12:06;;;;;;;15.00;12.67;;;;;;;20.16;40.72;94543.22;4969740;28;20193;-79
2022/04/21 11:14:34;;;;;;;14.77;12.57;;;;;;;20.12;40.91;94523.88;4971404;28;20626;-77
2022/04/21 11:17:04;;;;;;;16.17;12.00;;;;;;;20.16;41.01;94538.03;5037940;28;20210;-76
2022/04/21 11:19:36;;;;;;;14.63;12.93;;;;;;;20.14;40.83;94536.66;5052080;28;20725;-77
2022/04/21 11:22:05;;;;;;;14.87;13.27;;;;;;;20.12;40.62;94529.06;5051849;28;20199;-81
2022/04/21 11:25:03;;;;;;;16.30;12.83;;;;;;;20.09;40.66;94534.66;5051613;28;20184;-76
2022/04/21 11:27:32;;;;;;;16.73;12.67;;;;;;;20.05;40.67;94536.84;5050533;28;20190;-79
2022/04/21 11:30:01;;;;;;;15.20;12.07;;;;;;;20.01;40.66;94535.66;5051877;28;20223;-79
2022/04/21 11:32:29;;;;;;;13.57;11.53;;;;;;;19.97;40.62;94533.66;5051547;28;20627;-81
2022/04/21 11:35:00;;;;;;;14.63;11.93;;;;;;;19.92;40.86;94531.66;5052141;28;20674;-79
2022/04/21 11:37:47;;;;;;;18.37;13.43;;;;;;;19.86;40.47;94524.69;5050955;28;20191;-77
2022/04/21 11:40:36;;;;;;;18.80;12.23;;;;;;;19.82;40.64;94517.47;5051110;28;20233;-82
2022/04/21 11:43:15;;;;;;;16.43;11.83;;;;;;;19.76;40.81;94525.03;5051833;28;20188;-81
2022/04/21 11:45:44;;;;;;;15.40;11.93;;;;;;;19.74;40.87;94515.88;5051725;28;20225;-81
2022/04/21 11:48:14;;;;;;;18.30;12.00;;;;;;;19.73;40.94;94511.66;5051513;28;20206;-82
2022/04/21 11:50:45;;;;;;;15.07;12.17;;;;;;;19.70;41.05;94501.69;5059050;28;20209;-78
2022/04/21 11:53:14;;;;;;;16.30;12.90;;;;;;;19.72;41.12;94512.66;5056525;28;20202;-81
2022/04/21 11:55:42;;;;;;;15.03;11.53;;;;;;;19.71;41.21;94501.50;5054787;28;20278;-84
2022/04/21 11:58:09;;;;;;;13.57;11.50;;;;;;;19.67;41.22;94491.72;5052327;28;20281;-84
2022/04/21 12:08:51;;;;;;;13.63;11.73;;;;;;;19.75;41.26;94488.94;5049090;28;20269;-80
2022/04/21 12:11:21;;;;;;;17.27;12.03;;;;;;;19.73;41.37;94488.31;5051306;28;20203;-80
2022/04/21 12:13:49;;;;;;;12.23;10.93;;;;;;;19.71;41.54;94490.31;5051316;28;20649;-81
2022/04/21 12:16:36;;;;;;;12.57;10.70;;;;;;;19.70;41.57;94494.72;5051365;28;20202;-79
2022/04/21 12:19:19;;;;;;;13.97;10.90;;;;;;;19.69;41.50;94490.53;5049327;28;20241;-81
2022/04/21 12:21:55;;;;;;;13.60;11.23;;;;;;;19.68;41.51;94485.53;5049757;28;20897;-76
2022/04/21 12:24:28;;;;;;;13.13;11.17;;;;;;;19.65;41.66;94481.53;5048335;28;20299;-78
2022/04/21 12:26:55;;;;;;;12.77;11.37;;;;;;;19.64;41.60;94473.94;5051190;28;20716;-83
2022/04/21 12:29:23;;;;;;;11.83;10.57;;;;;;;19.65;41.64;94476.34;5050222;28;20223;-76
2022/04/21 12:31:52;;;;;;;15.07;9.97;;;;;;;19.66;41.84;94479.75;5050111;28;20551;-84
2022/04/21 12:34:27;;;;;;;13.43;10.27;;;;;;;19.65;41.77;94473.75;5050602;28;20202;-78
2022/04/21 12:36:58;;;;;;;13.73;9.80;;;;;;;19.67;41.84;94471.75;5048823;28;20252;-82
2022/04/21 12:39:26;;;;;;;11.40;10.27;;;;;;;19.71;42.00;94478.13;5051099;28;20205;-78